Fortescue, NJ

5:06 PM EST on February 10, 2016 (GMT -0500)
Fortescue, New Jersey | | Change Station
CLOSE
Current Station
Personal Weather Station
Location: Downe, NJ
Elevation: 13 ft
Nearby Weather Stations

Elev 13 ft 39.24 °N, 75.17 °W | Updated 3 minutes ago

Overcast
Overcast
33.3 °F
Feels Like 21 °F
N
23.0
Wind Variable Wind from SW
Gusts 29.0 mph

Today
High -- | Low -- °F
--% Chance of Precip.
Yesterday
High -- | Low -- °F
Precip. -- in
Pressure 29.78 in
Visibility 10.0 miles
Clouds Overcast 4200 ft
Windchill 21 °F
Dew Point 22 °F
Humidity 64%
Rainfall 0.00 in
Snow Depth Not available.
6:58 AM 5:31 PM
Waxing Crescent, 7% visible
METAR KMIV 102154Z AUTO 28014G20KT 10SM OVC042 01/M08 A2978 RMK AO2 SLP084 T00111078
Pressure 29.78 in
Visibility 10.0 miles
Clouds Overcast 4200 ft
Windchill 21 °F
Dew Point 22 °F
Humidity 64%
Rainfall 0.00 in
Snow Depth Not available.
6:58 AM 5:31 PM
Waxing Crescent, 7% visible
METAR KMIV 102154Z AUTO 28014G20KT 10SM OVC042 01/M08 A2978 RMK AO2 SLP084 T00111078

10-Day Weather Forecast

Almanac

Astronomy

Feb. 10, 2016 Rise Set
Actual Time
Civil Twilight
Nautical Twilight
Astronomical Twilight
Moon
Length of Visible Light
Length of Day
Tomorrow will be .
, % of the Moon is Illuminated

Today's Extremes

State Highs State Lows

Community

WunderPhotos

Upload Photos

1,891,959 photos uploaded!

WunderBlog® & News

Nearby

Air Quality

  Air Quality AQ Index Pollutant
Not available.

Snow Depth

Station Depth Elevation

Earthquake Activity

City Distance Mag. Time & Date
Minimum magnitude displayed is 2.5.

Coastal Water Temperatures

Place Temperature

Stations

Nearby Weather Stations

Station Location Temp. Windchill Dew Point Humidity Wind Precip. Elev Updated Type
                   

Watches & Warnings

There are currently no watches in effect.